sensor_id;sensor_type;location;lat;lon;timestamp;pressure;altitude;pressure_sealevel;temperature;humidity
52319;BME280;38258;51.148;14.068;2023-05-25T00:00:12;99008.91;;;2.93;100.00
52319;BME280;38258;51.148;14.068;2023-05-25T00:02:40;99015.72;;;2.90;100.00
52319;BME280;38258;51.148;14.068;2023-05-25T00:05:08;99013.88;;;2.79;100.00
52319;BME280;38258;51.148;14.068;2023-05-25T00:07:35;99013.06;;;2.82;100.00
52319;BME280;38258;51.148;14.068;2023-05-25T00:10:04;99023.38;;;2.80;100.00
52319;BME280;38258;51.148;14.068;2023-05-25T00:12:31;99024.22;;;2.81;100.00
52319;BME280;38258;51.148;14.068;2023-05-25T00:14:58;99027.66;;;2.80;100.00
52319;BME280;38258;51.148;14.068;2023-05-25T00:17:25;99020.72;;;2.76;100.00
52319;BME280;38258;51.148;14.068;2023-05-25T00:19:56;99023.28;;;2.74;100.00
52319;BME280;38258;51.148;14.068;2023-05-25T00:22:26;99019.03;;;2.79;100.00
52319;BME280;38258;51.148;14.068;2023-05-25T00:24:53;99015.59;;;2.79;100.00
52319;BME280;38258;51.148;14.068;2023-05-25T00:27:21;99004.34;;;2.75;100.00
52319;BME280;38258;51.148;14.068;2023-05-25T00:29:48;99004.31;;;2.72;100.00
52319;BME280;38258;51.148;14.068;2023-05-25T00:32:15;99010.38;;;2.73;100.00
52319;BME280;38258;51.148;14.068;2023-05-25T00:34:42;99012.81;;;2.65;100.00
52319;BME280;38258;51.148;14.068;2023-05-25T00:37:09;99011.06;;;2.62;100.00
52319;BME280;38258;51.148;14.068;2023-05-25T00:39:36;99013.66;;;2.64;100.00
52319;BME280;38258;51.148;14.068;2023-05-25T00:42:04;99018.78;;;2.61;100.00
52319;BME280;38258;51.148;14.068;2023-05-25T00:44:33;99016.19;;;2.58;100.00
52319;BME280;38258;51.148;14.068;2023-05-25T00:47:00;99014.44;;;2.58;100.00
52319;BME280;38258;51.148;14.068;2023-05-25T00:49:30;99023.84;;;2.53;100.00
52319;BME280;38258;51.148;14.068;2023-05-25T00:51:59;99020.47;;;2.56;100.00
52319;BME280;38258;51.148;14.068;2023-05-25T00:54:26;99017.00;;;2.53;100.00
52319;BME280;38258;51.148;14.068;2023-05-25T00:56:56;99034.22;;;2.54;100.00
52319;BME280;38258;51.148;14.068;2023-05-25T00:59:26;99015.22;;;2.51;100.00
52319;BME280;38258;51.148;14.068;2023-05-25T01:01:58;99017.78;;;2.49;100.00
52319;BME280;38258;51.148;14.068;2023-05-25T01:04:30;99009.97;;;2.46;100.00
52319;BME280;38258;51.148;14.068;2023-05-25T01:06:57;99009.16;;;2.50;100.00
52319;BME280;38258;51.148;14.068;2023-05-25T01:09:26;99014.25;;;2.44;100.00
52319;BME280;38258;51.148;14.068;2023-05-25T01:11:55;99016.91;;;2.49;100.00
52319;BME280;38258;51.148;14.068;2023-05-25T01:14:25;99014.41;;;2.55;100.00
52319;BME280;38258;51.148;14.068;2023-05-25T01:16:52;99015.19;;;2.49;100.00
52319;BME280;38258;51.148;14.068;2023-05-25T01:19:25;99015.06;;;2.42;100.00
52319;BME280;38258;51.148;14.068;2023-05-25T01:22:00;99015.16;;;2.45;100.00
52319;BME280;38258;51.148;14.068;2023-05-25T01:24:32;99011.72;;;2.47;100.00
52319;BME280;38258;51.148;14.068;2023-05-25T01:27:07;99014.25;;;2.44;100.00
52319;BME280;38258;51.148;14.068;2023-05-25T01:29:35;99017.66;;;2.42;100.00
52319;BME280;38258;51.148;14.068;2023-05-25T01:32:04;99017.69;;;2.43;100.00
52319;BME280;38258;51.148;14.068;2023-05-25T01:34:33;99012.56;;;2.45;100.00
52319;BME280;38258;51.148;14.068;2023-05-25T01:37:03;99016.88;;;2.47;100.00
52319;BME280;38258;51.148;14.068;2023-05-25T01:39:29;99023.69;;;2.42;100.00
52319;BME280;38258;51.148;14.068;2023-05-25T01:41:56;99017.63;;;2.38;100.00
52319;BME280;38258;51.148;14.068;2023-05-25T01:44:23;99021.91;;;2.36;100.00
52319;BME280;38258;51.148;14.068;2023-05-25T01:46:54;99021.84;;;2.33;100.00
52319;BME280;38258;51.148;14.068;2023-05-25T01:49:26;99021.06;;;2.37;100.00
52319;BME280;38258;51.148;14.068;2023-05-25T01:52:00;99015.00;;;2.35;100.00
52319;BME280;38258;51.148;14.068;2023-05-25T01:54:34;99022.69;;;2.32;100.00
52319;BME280;38258;51.148;14.068;2023-05-25T01:57:05;99017.50;;;2.31;100.00
52319;BME280;38258;51.148;14.068;2023-05-25T01:59:34;99019.19;;;2.29;100.00
52319;BME280;38258;51.148;14.068;2023-05-25T02:02:03;99011.38;;;2.22;100.00
52319;BME280;38258;51.148;14.068;2023-05-25T02:04:31;99005.28;;;2.20;100.00
52319;BME280;38258;51.148;14.068;2023-05-25T02:06:59;99006.97;;;2.17;100.00
52319;BME280;38258;51.148;14.068;2023-05-25T02:09:25;99005.28;;;2.20;100.00
52319;BME280;38258;51.148;14.068;2023-05-25T02:11:54;99009.50;;;2.14;100.00
52319;BME280;38258;51.148;14.068;2023-05-25T02:14:21;99007.84;;;2.17;100.00
52319;BME280;38258;51.148;14.068;2023-05-25T02:16:48;99010.41;;;2.17;100.00
52319;BME280;38258;51.148;14.068;2023-05-25T02:19:15;99006.97;;;2.17;100.00
52319;BME280;38258;51.148;14.068;2023-05-25T02:21:41;99006.13;;;2.19;100.00
52319;BME280;38258;51.148;14.068;2023-05-25T02:24:08;99011.19;;;2.10;100.00
52319;BME280;38258;51.148;14.068;2023-05-25T02:26:36;99012.88;;;2.09;100.00
52319;BME280;38258;51.148;14.068;2023-05-25T02:29:04;99019.78;;;2.09;100.00
52319;BME280;38258;51.148;14.068;2023-05-25T02:31:31;99024.03;;;2.08;100.00
52319;BME280;38258;51.148;14.068;2023-05-25T02:33:58;99024.13;;;2.15;100.00
52319;BME280;38258;51.148;14.068;2023-05-25T02:36:25;99026.72;;;2.13;100.00
52319;BME280;38258;51.148;14.068;2023-05-25T02:38:52;99021.50;;;2.11;100.00
52319;BME280;38258;51.148;14.068;2023-05-25T02:41:19;99016.34;;;2.10;100.00
52319;BME280;38258;51.148;14.068;2023-05-25T02:43:46;99013.81;;;2.13;100.00
52319;BME280;38258;51.148;14.068;2023-05-25T02:46:15;99020.56;;;2.06;100.00
52319;BME280;38258;51.148;14.068;2023-05-25T02:48:42;99022.34;;;2.09;100.00
52319;BME280;38258;51.148;14.068;2023-05-25T02:51:09;99024.94;;;2.10;100.00
52319;BME280;38258;51.148;14.068;2023-05-25T02:53:35;99029.25;;;2.10;100.00
52319;BME280;38258;51.148;14.068;2023-05-25T02:56:02;99029.22;;;2.08;100.00
52319;BME280;38258;51.148;14.068;2023-05-25T02:58:32;99030.91;;;2.06;100.00
52319;BME280;38258;51.148;14.068;2023-05-25T03:01:11;99035.22;;;2.07;100.00
52319;BME280;38258;51.148;14.068;2023-05-25T03:03:47;99036.88;;;2.04;100.00
52319;BME280;38258;51.148;14.068;2023-05-25T03:06:17;99040.41;;;2.09;100.00
52319;BME280;38258;51.148;14.068;2023-05-25T03:08:46;99043.13;;;2.17;100.00
52319;BME280;38258;51.148;14.068;2023-05-25T03:11:13;99043.00;;;2.09;100.00
52319;BME280;38258;51.148;14.068;2023-05-25T03:13:41;99048.16;;;2.10;100.00
52319;BME280;38258;51.148;14.068;2023-05-25T03:16:08;99036.22;;;2.17;100.00
52319;BME280;38258;51.148;14.068;2023-05-25T03:18:35;99043.00;;;2.09;100.00
52319;BME280;38258;51.148;14.068;2023-05-25T03:21:03;99049.94;;;2.15;100.00
52319;BME280;38258;51.148;14.068;2023-05-25T03:23:30;99054.28;;;2.17;100.00
52319;BME280;38258;51.148;14.068;2023-05-25T03:25:57;99043.88;;;2.11;100.00
52319;BME280;38258;51.148;14.068;2023-05-25T03:28:24;99049.94;;;2.15;100.00
52319;BME280;38258;51.148;14.068;2023-05-25T03:30:52;99051.75;;;2.20;100.00
52319;BME280;38258;51.148;14.068;2023-05-25T03:33:18;99062.19;;;2.28;100.00
52319;BME280;38258;51.148;14.068;2023-05-25T03:35:47;99060.66;;;2.38;100.00
52319;BME280;38258;51.148;14.068;2023-05-25T03:38:15;99061.44;;;2.34;100.00
52319;BME280;38258;51.148;14.068;2023-05-25T03:40:42;99061.56;;;2.42;100.00
52319;BME280;38258;51.148;14.068;2023-05-25T03:43:09;99059.94;;;2.48;100.00
52319;BME280;38258;51.148;14.068;2023-05-25T03:45:35;99062.63;;;2.54;100.00
52319;BME280;38258;51.148;14.068;2023-05-25T03:48:02;99073.81;;;2.53;100.00
52319;BME280;38258;51.148;14.068;2023-05-25T03:50:30;99084.22;;;2.60;100.00
52319;BME280;38258;51.148;14.068;2023-05-25T03:52:58;99079.97;;;2.63;100.00
52319;BME280;38258;51.148;14.068;2023-05-25T03:55:26;99080.94;;;2.72;100.00
52319;BME280;38258;51.148;14.068;2023-05-25T03:57:53;99084.44;;;2.75;100.00
52319;BME280;38258;51.148;14.068;2023-05-25T04:00:20;99087.22;;;2.89;100.00
52319;BME280;38258;51.148;14.068;2023-05-25T04:02:49;99085.56;;;2.94;100.00
52319;BME280;38258;51.148;14.068;2023-05-25T04:05:21;99093.44;;;3.02;100.00
52319;BME280;38258;51.148;14.068;2023-05-25T04:07:52;99085.81;;;3.13;100.00
52319;BME280;38258;51.148;14.068;2023-05-25T04:10:20;99098.00;;;3.23;100.00
52319;BME280;38258;51.148;14.068;2023-05-25T04:12:48;99095.56;;;3.34;100.00
52319;BME280;38258;51.148;14.068;2023-05-25T04:15:16;99098.22;;;3.41;100.00
52319;BME280;38258;51.148;14.068;2023-05-25T04:17:55;99092.22;;;3.45;100.00
52319;BME280;38258;51.148;14.068;2023-05-25T04:20:23;99094.13;;;3.58;100.00
52319;BME280;38258;51.148;14.068;2023-05-25T04:22:50;99090.81;;;3.72;100.00
52319;BME280;38258;51.148;14.068;2023-05-25T04:25:17;99098.66;;;3.79;100.00
52319;BME280;38258;51.148;14.068;2023-05-25T04:27:44;99092.72;;;3.90;100.00
52319;BME280;38258;51.148;14.068;2023-05-25T04:30:13;99093.72;;;4.04;100.00
52319;BME280;38258;51.148;14.068;2023-05-25T04:33:00;99099.13;;;4.31;100.00
52319;BME280;38258;51.148;14.068;2023-05-25T04:35:32;99101.03;;;4.52;100.00
52319;BME280;38258;51.148;14.068;2023-05-25T04:37:58;99088.16;;;4.61;100.00
52319;BME280;38258;51.148;14.068;2023-05-25T04:40:27;99089.97;;;4.79;100.00
52319;BME280;38258;51.148;14.068;2023-05-25T04:42:54;99088.31;;;4.88;100.00
52319;BME280;38258;51.148;14.068;2023-05-25T04:45:22;99090.13;;;5.07;100.00
52319;BME280;38258;51.148;14.068;2023-05-25T04:47:50;99097.16;;;5.27;100.00
52319;BME280;38258;51.148;14.068;2023-05-25T04:50:17;99095.50;;;5.51;100.00
52319;BME280;38258;51.148;14.068;2023-05-25T04:52:44;99093.84;;;5.67;100.00
52319;BME280;38258;51.148;14.068;2023-05-25T04:55:10;99099.06;;;5.79;100.00
52319;BME280;38258;51.148;14.068;2023-05-25T04:57:40;99099.09;;;5.92;100.00
52319;BME280;38258;51.148;14.068;2023-05-25T05:00:08;99089.63;;;6.16;100.00
52319;BME280;38258;51.148;14.068;2023-05-25T05:02:38;99083.59;;;6.28;100.00
52319;BME280;38258;51.148;14.068;2023-05-25T05:05:06;99082.72;;;6.46;100.00
52319;BME280;38258;51.148;14.068;2023-05-25T05:07:33;99089.63;;;6.56;100.00
52319;BME280;38258;51.148;14.068;2023-05-25T05:10:00;99085.28;;;6.71;100.00
52319;BME280;38258;51.148;14.068;2023-05-25T05:12:27;99087.00;;;6.90;100.00
52319;BME280;38258;51.148;14.068;2023-05-25T05:14:56;99086.94;;;7.07;100.00
52319;BME280;38258;51.148;14.068;2023-05-25T05:17:23;99086.03;;;7.21;100.00
52319;BME280;38258;51.148;14.068;2023-05-25T05:19:51;99085.91;;;7.54;100.00
52319;BME280;38258;51.148;14.068;2023-05-25T05:22:18;99075.38;;;7.75;100.00
52319;BME280;38258;51.148;14.068;2023-05-25T05:24:45;99080.53;;;7.86;100.00
52319;BME280;38258;51.148;14.068;2023-05-25T05:27:18;99085.69;;;7.94;100.00
52319;BME280;38258;51.148;14.068;2023-05-25T05:29:51;99086.47;;;8.07;100.00
52319;BME280;38258;51.148;14.068;2023-05-25T05:32:17;99085.47;;;8.27;100.00
52319;BME280;38258;51.148;14.068;2023-05-25T05:34:44;99083.75;;;8.26;100.00
52319;BME280;38258;51.148;14.068;2023-05-25T05:37:31;99076.72;;;8.34;100.00
52319;BME280;38258;51.148;14.068;2023-05-25T05:39:57;99086.16;;;8.51;100.00
52319;BME280;38258;51.148;14.068;2023-05-25T05:42:24;99091.22;;;8.66;100.00
52319;BME280;38258;51.148;14.068;2023-05-25T05:44:51;99096.38;;;8.77;100.00
52319;BME280;38258;51.148;14.068;2023-05-25T05:47:17;99092.81;;;8.86;100.00
52319;BME280;38258;51.148;14.068;2023-05-25T05:49:44;99094.31;;;9.05;100.00
52319;BME280;38258;51.148;14.068;2023-05-25T05:52:11;99098.53;;;9.17;100.00
52319;BME280;38258;51.148;14.068;2023-05-25T05:54:39;99093.53;;;9.00;100.00
52319;BME280;38258;51.148;14.068;2023-05-25T05:57:09;99093.34;;;9.16;100.00
52319;BME280;38258;51.148;14.068;2023-05-25T05:59:36;99096.94;;;9.07;100.00
52319;BME280;38258;51.148;14.068;2023-05-25T06:02:03;99102.19;;;9.02;100.00
52319;BME280;38258;51.148;14.068;2023-05-25T06:04:29;99100.13;;;9.32;100.00
52319;BME280;38258;51.148;14.068;2023-05-25T06:06:57;99106.28;;;9.25;100.00
52319;BME280;38258;51.148;14.068;2023-05-25T06:09:24;99090.47;;;9.41;100.00
52319;BME280;38258;51.148;14.068;2023-05-25T06:11:53;99104.06;;;9.66;100.00
52319;BME280;38258;51.148;14.068;2023-05-25T06:14:20;99107.00;;;9.40;100.00
52319;BME280;38258;51.148;14.068;2023-05-25T06:16:47;99101.59;;;9.54;100.00
52319;BME280;38258;51.148;14.068;2023-05-25T06:19:13;99112.72;;;9.68;100.00
52319;BME280;38258;51.148;14.068;2023-05-25T06:21:40;99108.41;;;9.67;100.00
52319;BME280;38258;51.148;14.068;2023-05-25T06:24:07;99119.47;;;9.86;100.00
52319;BME280;38258;51.148;14.068;2023-05-25T06:26:34;99114.34;;;9.77;100.00
52319;BME280;38258;51.148;14.068;2023-05-25T06:29:01;99112.34;;;9.98;100.00
52319;BME280;38258;51.148;14.068;2023-05-25T06:31:28;99106.34;;;9.89;100.00
52319;BME280;38258;51.148;14.068;2023-05-25T06:33:55;99112.16;;;10.10;100.00
52319;BME280;38258;51.148;14.068;2023-05-25T06:36:21;99106.50;;;10.38;100.00
52319;BME280;38258;51.148;14.068;2023-05-25T06:38:48;99113.03;;;10.11;100.00
52319;BME280;38258;51.148;14.068;2023-05-25T06:41:15;99098.66;;;10.38;100.00
52319;BME280;38258;51.148;14.068;2023-05-25T06:43:43;99112.09;;;10.71;100.00
52319;BME280;38258;51.148;14.068;2023-05-25T06:46:19;99102.94;;;10.44;100.00
52319;BME280;38258;51.148;14.068;2023-05-25T06:48:46;99106.13;;;10.63;100.00
52319;BME280;38258;51.148;14.068;2023-05-25T06:51:12;99108.03;;;11.03;100.00
52319;BME280;38258;51.148;14.068;2023-05-25T06:53:39;99109.63;;;11.12;100.00
52319;BME280;38258;51.148;14.068;2023-05-25T06:56:05;99110.34;;;11.21;100.00
52319;BME280;38258;51.148;14.068;2023-05-25T06:58:32;99109.16;;;11.37;100.00
52319;BME280;38258;51.148;14.068;2023-05-25T07:00:58;99108.19;;;11.82;100.00
52319;BME280;38258;51.148;14.068;2023-05-25T07:03:27;99115.78;;;11.95;100.00
52319;BME280;38258;51.148;14.068;2023-05-25T07:05:54;99117.28;;;12.08;100.00
52319;BME280;38258;51.148;14.068;2023-05-25T07:08:20;99107.19;;;11.88;100.00
52319;BME280;38258;51.148;14.068;2023-05-25T07:10:47;99108.53;;;12.46;100.00
52319;BME280;38258;51.148;14.068;2023-05-25T07:13:13;99105.88;;;12.47;100.00
52319;BME280;38258;51.148;14.068;2023-05-25T07:15:40;99111.97;;;12.49;100.00
52319;BME280;38258;51.148;14.068;2023-05-25T07:18:06;99106.78;;;12.81;100.00
52319;BME280;38258;51.148;14.068;2023-05-25T07:20:38;99107.59;;;12.83;100.00
52319;BME280;38258;51.148;14.068;2023-05-25T07:23:06;99112.66;;;12.91;100.00
52319;BME280;38258;51.148;14.068;2023-05-25T07:25:33;99111.16;;;13.15;100.00
52319;BME280;38258;51.148;14.068;2023-05-25T07:28:00;99111.81;;;12.54;100.00
52319;BME280;38258;51.148;14.068;2023-05-25T07:30:26;99110.22;;;12.83;100.00
52319;BME280;38258;51.148;14.068;2023-05-25T07:32:53;99113.00;;;12.78;100.00
52319;BME280;38258;51.148;14.068;2023-05-25T07:35:20;99113.84;;;12.79;100.00
52319;BME280;38258;51.148;14.068;2023-05-25T07:37:55;99107.00;;;13.38;100.00
52319;BME280;38258;51.148;14.068;2023-05-25T07:40:21;99115.03;;;13.95;100.00
52319;BME280;38258;51.148;14.068;2023-05-25T07:42:48;99110.03;;;13.55;100.00
52319;BME280;38258;51.148;14.068;2023-05-25T07:45:14;99107.31;;;13.89;100.00
52319;BME280;38258;51.148;14.068;2023-05-25T07:47:41;99111.34;;;13.72;100.00
52319;BME280;38258;51.148;14.068;2023-05-25T07:50:08;99108.91;;;13.94;100.00
52319;BME280;38258;51.148;14.068;2023-05-25T07:52:35;99107.16;;;14.77;99.63
52319;BME280;38258;51.148;14.068;2023-05-25T07:55:04;99120.09;;;14.01;100.00
52319;BME280;38258;51.148;14.068;2023-05-25T07:57:31;99107.81;;;13.40;100.00
52319;BME280;38258;51.148;14.068;2023-05-25T07:59:57;99112.72;;;14.41;100.00
52319;BME280;38258;51.148;14.068;2023-05-25T08:02:24;99122.00;;;15.05;100.00
52319;BME280;38258;51.148;14.068;2023-05-25T08:04:52;99120.38;;;15.26;96.32
52319;BME280;38258;51.148;14.068;2023-05-25T08:07:19;99122.06;;;15.29;91.57
52319;BME280;38258;51.148;14.068;2023-05-25T08:09:47;99124.56;;;15.32;92.31
52319;BME280;38258;51.148;14.068;2023-05-25T08:12:15;99124.31;;;14.89;94.73
52319;BME280;38258;51.148;14.068;2023-05-25T08:14:41;99125.00;;;14.67;94.32
52319;BME280;38258;51.148;14.068;2023-05-25T08:17:08;99132.84;;;15.47;88.97
52319;BME280;38258;51.148;14.068;2023-05-25T08:19:35;99111.84;;;16.15;80.94
52319;BME280;38258;51.148;14.068;2023-05-25T08:22:01;99127.13;;;16.51;77.25
52319;BME280;38258;51.148;14.068;2023-05-25T08:24:28;99128.69;;;14.62;93.10
52319;BME280;38258;51.148;14.068;2023-05-25T08:26:54;99128.69;;;14.62;93.71
52319;BME280;38258;51.148;14.068;2023-05-25T08:29:22;99130.75;;;16.49;83.65
52319;BME280;38258;51.148;14.068;2023-05-25T08:31:49;99131.59;;;17.13;78.77
52319;BME280;38258;51.148;14.068;2023-05-25T08:34:15;99124.16;;;16.59;75.99
52319;BME280;38258;51.148;14.068;2023-05-25T08:36:42;99127.16;;;16.72;77.12
52319;BME280;38258;51.148;14.068;2023-05-25T08:39:09;99137.50;;;16.34;77.06
52319;BME280;38258;51.148;14.068;2023-05-25T08:41:42;99137.16;;;14.98;92.11
52319;BME280;38258;51.148;14.068;2023-05-25T08:44:08;99146.56;;;15.31;90.88
52319;BME280;38258;51.148;14.068;2023-05-25T08:46:36;99150.50;;;15.19;86.89
52319;BME280;38258;51.148;14.068;2023-05-25T08:49:08;99145.84;;;14.75;87.51
52319;BME280;38258;51.148;14.068;2023-05-25T08:51:36;99143.63;;;15.40;85.92
52319;BME280;38258;51.148;14.068;2023-05-25T08:54:06;99145.06;;;16.21;75.40
52319;BME280;38258;51.148;14.068;2023-05-25T08:56:36;99131.28;;;17.00;69.69
52319;BME280;38258;51.148;14.068;2023-05-25T08:59:10;99135.66;;;17.01;64.20
52319;BME280;38258;51.148;14.068;2023-05-25T09:01:43;99139.06;;;17.45;65.68
52319;BME280;38258;51.148;14.068;2023-05-25T09:04:12;99142.94;;;17.57;63.10
52319;BME280;38258;51.148;14.068;2023-05-25T09:06:39;99135.91;;;19.73;58.85
52319;BME280;38258;51.148;14.068;2023-05-25T09:09:06;99127.19;;;19.87;58.50
52319;BME280;38258;51.148;14.068;2023-05-25T09:11:34;99147.97;;;18.20;59.72
52319;BME280;38258;51.148;14.068;2023-05-25T09:14:00;99142.06;;;18.52;57.25
52319;BME280;38258;51.148;14.068;2023-05-25T09:16:30;99152.03;;;17.70;60.56
52319;BME280;38258;51.148;14.068;2023-05-25T09:18:58;99154.34;;;16.31;69.54
52319;BME280;38258;51.148;14.068;2023-05-25T09:21:25;99152.88;;;15.27;77.72
52319;BME280;38258;51.148;14.068;2023-05-25T09:23:51;99145.47;;;15.38;79.46
52319;BME280;38258;51.148;14.068;2023-05-25T09:26:18;99162.50;;;15.77;77.70
52319;BME280;38258;51.148;14.068;2023-05-25T09:28:45;99143.88;;;16.93;67.33
52319;BME280;38258;51.148;14.068;2023-05-25T09:31:13;99143.75;;;17.59;64.82
52319;BME280;38258;51.148;14.068;2023-05-25T09:33:40;99155.00;;;17.43;70.32
52319;BME280;38258;51.148;14.068;2023-05-25T09:36:11;99148.63;;;18.80;65.09
52319;BME280;38258;51.148;14.068;2023-05-25T09:38:39;99166.19;;;18.09;59.48
52319;BME280;38258;51.148;14.068;2023-05-25T09:41:06;99152.06;;;18.08;62.78
52319;BME280;38258;51.148;14.068;2023-05-25T09:43:32;99154.63;;;17.32;59.40
52319;BME280;38258;51.148;14.068;2023-05-25T09:45:59;99162.59;;;18.29;63.75
52319;BME280;38258;51.148;14.068;2023-05-25T09:48:26;99157.88;;;19.08;56.23
52319;BME280;38258;51.148;14.068;2023-05-25T09:50:54;99156.72;;;18.59;56.71
52319;BME280;38258;51.148;14.068;2023-05-25T09:53:22;99151.50;;;18.21;56.32
52319;BME280;38258;51.148;14.068;2023-05-25T09:55:50;99168.78;;;16.88;67.94
52319;BME280;38258;51.148;14.068;2023-05-25T09:58:17;99172.94;;;17.56;65.73
52319;BME280;38258;51.148;14.068;2023-05-25T10:00:43;99160.72;;;18.86;58.65
52319;BME280;38258;51.148;14.068;2023-05-25T10:03:10;99166.44;;;17.44;62.99
52319;BME280;38258;51.148;14.068;2023-05-25T10:05:39;99173.28;;;17.69;63.19
52319;BME280;38258;51.148;14.068;2023-05-25T10:08:06;99170.44;;;18.12;57.46
52319;BME280;38258;51.148;14.068;2023-05-25T10:10:36;99174.50;;;20.29;56.35
52319;BME280;38258;51.148;14.068;2023-05-25T10:13:03;99170.13;;;19.11;54.67
52319;BME280;38258;51.148;14.068;2023-05-25T10:15:33;99167.50;;;18.91;55.52
52319;BME280;38258;51.148;14.068;2023-05-25T10:18:02;99160.94;;;19.52;56.56
52319;BME280;38258;51.148;14.068;2023-05-25T10:20:29;99160.56;;;22.20;50.12
52319;BME280;38258;51.148;14.068;2023-05-25T10:22:59;99156.50;;;20.02;48.68
52319;BME280;38258;51.148;14.068;2023-05-25T10:25:32;99162.25;;;20.42;50.62
52319;BME280;38258;51.148;14.068;2023-05-25T10:28:07;99165.25;;;19.36;53.45
52319;BME280;38258;51.148;14.068;2023-05-25T10:30:33;99159.03;;;19.02;52.77
52319;BME280;38258;51.148;14.068;2023-05-25T10:33:02;99157.66;;;19.80;55.53
52319;BME280;38258;51.148;14.068;2023-05-25T10:35:28;99163.69;;;19.32;53.06
52319;BME280;38258;51.148;14.068;2023-05-25T10:37:55;99148.91;;;20.74;53.49
52319;BME280;38258;51.148;14.068;2023-05-25T10:40:23;99162.91;;;19.30;53.64
52319;BME280;38258;51.148;14.068;2023-05-25T10:42:50;99174.94;;;18.48;56.59
52319;BME280;38258;51.148;14.068;2023-05-25T10:45:18;99166.00;;;19.05;54.45
52319;BME280;38258;51.148;14.068;2023-05-25T10:47:45;99162.53;;;19.38;54.81
52319;BME280;38258;51.148;14.068;2023-05-25T10:50:20;99159.09;;;19.36;52.29
52319;BME280;38258;51.148;14.068;2023-05-25T10:52:59;99159.72;;;18.88;50.59
52319;BME280;38258;51.148;14.068;2023-05-25T10:55:26;99164.53;;;18.98;51.37
52319;BME280;38258;51.148;14.068;2023-05-25T10:58:10;99151.91;;;20.84;49.82
52319;BME280;38258;51.148;14.068;2023-05-25T11:00:38;99144.06;;;19.01;53.06
52319;BME280;38258;51.148;14.068;2023-05-25T11:03:06;99147.66;;;18.46;53.96
52319;BME280;38258;51.148;14.068;2023-05-25T11:05:35;99134.56;;;19.82;54.25
52319;BME280;38258;51.148;14.068;2023-05-25T11:08:05;99149.72;;;19.46;51.56
52319;BME280;38258;51.148;14.068;2023-05-25T11:10:41;99142.50;;;19.82;49.36
52319;BME280;38258;51.148;14.068;2023-05-25T11:13:35;99139.34;;;19.91;51.96
52319;BME280;38258;51.148;14.068;2023-05-25T11:16:14;99131.88;;;19.66;49.29
52319;BME280;38258;51.148;14.068;2023-05-25T11:18:42;99135.06;;;19.89;48.06
52319;BME280;38258;51.148;14.068;2023-05-25T11:21:13;99133.81;;;20.75;49.92
52319;BME280;38258;51.148;14.068;2023-05-25T11:24:01;99130.41;;;21.18;51.00
52319;BME280;38258;51.148;14.068;2023-05-25T11:26:32;99118.41;;;20.19;49.97
52319;BME280;38258;51.148;14.068;2023-05-25T11:29:00;99122.75;;;20.04;51.38
52319;BME280;38258;51.148;14.068;2023-05-25T11:31:29;99127.28;;;20.50;49.22
52319;BME280;38258;51.148;14.068;2023-05-25T11:33:57;99120.78;;;20.70;49.14
52319;BME280;38258;51.148;14.068;2023-05-25T11:36:26;99129.06;;;19.85;49.70
52319;BME280;38258;51.148;14.068;2023-05-25T11:38:56;99125.06;;;20.73;49.99
52319;BME280;38258;51.148;14.068;2023-05-25T11:41:26;99118.13;;;21.01;48.91
52319;BME280;38258;51.148;14.068;2023-05-25T11:43:53;99124.31;;;19.92;45.25
52319;BME280;38258;51.148;14.068;2023-05-25T11:46:21;99112.59;;;19.29;47.29
52319;BME280;38258;51.148;14.068;2023-05-25T11:48:50;99117.66;;;20.47;47.41
52319;BME280;38258;51.148;14.068;2023-05-25T11:51:19;99123.13;;;21.22;47.33
52319;BME280;38258;51.148;14.068;2023-05-25T11:53:46;99117.19;;;20.09;46.61
52319;BME280;38258;51.148;14.068;2023-05-25T11:56:14;99116.03;;;20.92;47.12
52319;BME280;38258;51.148;14.068;2023-05-25T11:58:41;99119.47;;;19.67;46.75
52319;BME280;38258;51.148;14.068;2023-05-25T12:01:16;99112.53;;;20.44;46.43
52319;BME280;38258;51.148;14.068;2023-05-25T12:03:43;99122.75;;;21.71;43.95
52319;BME280;38258;51.148;14.068;2023-05-25T12:06:24;99110.31;;;21.57;44.75
52319;BME280;38258;51.148;14.068;2023-05-25T12:08:51;99105.47;;;21.35;44.48
52319;BME280;38258;51.148;14.068;2023-05-25T12:11:26;99099.50;;;19.91;47.09
52319;BME280;38258;51.148;14.068;2023-05-25T12:13:52;99112.00;;;20.54;45.88
52319;BME280;38258;51.148;14.068;2023-05-25T12:16:19;99099.06;;;20.47;49.29
52319;BME280;38258;51.148;14.068;2023-05-25T12:18:46;99102.75;;;20.75;44.99
52319;BME280;38258;51.148;14.068;2023-05-25T12:21:13;99099.50;;;21.01;45.09
52319;BME280;38258;51.148;14.068;2023-05-25T12:23:41;99098.53;;;22.18;43.87
52319;BME280;38258;51.148;14.068;2023-05-25T12:26:09;99103.03;;;22.03;43.91
52319;BME280;38258;51.148;14.068;2023-05-25T12:28:36;99094.06;;;21.77;44.41
52319;BME280;38258;51.148;14.068;2023-05-25T12:31:19;99094.41;;;21.27;48.74
52319;BME280;38258;51.148;14.068;2023-05-25T12:34:01;99080.34;;;22.65;44.91
52319;BME280;38258;51.148;14.068;2023-05-25T12:36:38;99084.63;;;21.85;43.72
52319;BME280;38258;51.148;14.068;2023-05-25T12:39:07;99077.59;;;21.55;44.34
52319;BME280;38258;51.148;14.068;2023-05-25T12:41:47;99084.44;;;21.01;42.20
52319;BME280;38258;51.148;14.068;2023-05-25T12:44:22;99080.47;;;20.78;45.13
52319;BME280;38258;51.148;14.068;2023-05-25T12:46:50;99076.59;;;20.53;46.52
52319;BME280;38258;51.148;14.068;2023-05-25T12:49:30;99077.47;;;20.99;47.02
52319;BME280;38258;51.148;14.068;2023-05-25T12:51:58;99067.59;;;21.59;45.92
52319;BME280;38258;51.148;14.068;2023-05-25T12:54:42;99068.19;;;21.79;45.23